Latest Weather Observations for Mount Gambier

IDS60801

Issued at 2:35 pm CDT Thursday 27 November 2014 (issued every 30 minutes, with the page automatically refreshed every 10 minutes)

About weather observations | Map of weather stations | Latest weather observations for SA | Other Formats
Station Details ID: 026021 Name: MOUNT GAMBIER AERO Lat: -37.75 Lon: 140.77 Height: 63.0 m
Data from the previous 72 hours. | See also: Recent months at Mount Gambier
Date/Time
CDT
Temp
°C
App
Temp
°C
Dew
Point
Rel
Hum
%
Delta-T
°C
Wind Press
QNH
hPa
Press
MSL
hPa
Rain
since 9 am
mm
Dir
 
Spd
km/h
Gust
km/h
Spd
kts
Gust
kts
27/02:30pm 21.7 15.8 7.3 39 7.4 S 28 37 15 20 1023.6 - 0.0
27/02:00pm 21.9 16.7 7.4 39 7.5 S 24 33 13 18 1023.9 - 0.0
27/01:30pm 21.2 15.3 7.6 41 7.0 S 28 37 15 20 1024.0 - 0.0
27/01:00pm 21.2 16.0 7.4 41 7.1 S 24 33 13 18 1024.3 - 0.0
27/12:30pm 20.7 15.0 6.9 40 7.0 S 26 35 14 19 1024.6 - 0.0
27/12:00pm 19.7 15.1 5.4 39 7.0 SE 19 28 10 15 1024.9 1024.9 0.0
27/11:30am 19.1 15.4 4.5 38 7.0 SE 13 24 7 13 1025.2 - 0.0
27/11:00am 18.7 14.9 5.6 42 6.4 SE 15 19 8 10 1025.6 - 0.0
27/10:30am 18.0 14.5 5.4 43 6.1 ESE 13 26 7 14 1025.9 - 0.0
27/10:00am 16.5 12.5 4.9 46 5.5 SE 15 24 8 13 1026.0 - 0.0
27/09:30am 15.5 11.2 5.4 51 4.8 SSE 17 22 9 12 1026.3 - 0.0
27/09:00am 16.0 10.9 6.1 52 4.8 SE 22 30 12 16 1026.4 1026.4 0.0
27/08:30am 14.9 9.4 5.9 55 4.3 ESE 24 30 13 16 1026.4 - 0.0
27/08:00am 13.8 9.7 6.0 59 3.7 SE 17 22 9 12 1026.3 - 0.0
27/07:30am 12.4 9.5 6.5 67 2.8 SE 11 15 6 8 1026.1 - 0.0
27/07:00am 10.5 8.1 6.9 78 1.7 SE 9 13 5 7 1025.8 - 0.0
27/06:30am 7.6 5.2 5.3 85 1.0 SSE 7 9 4 5 1025.6 - 0.0
27/06:00am 6.8 3.9 4.5 85 1.0 SSE 9 11 5 6 1025.5 1025.5 0.0
27/05:30am 5.9 3.4 3.8 86 0.9 SSE 6 7 3 4 1025.4 - 0.0
27/05:00am 6.2 3.6 4.3 88 0.8 SSE 7 9 4 5 1025.1 - 0.0
27/04:30am 6.5 4.1 4.2 85 1.0 S 6 7 3 4 1025.0 - 0.0
27/04:00am 6.1 4.0 4.0 86 0.9 W 4 7 2 4 1025.1 - 0.0
27/03:30am 7.2 6.0 4.7 84 1.1 CALM 0 0 0 0 1024.8 - 0.0
27/03:00am 6.9 3.9 4.1 82 1.2 SE 9 11 5 6 1024.7 1024.7 0.0
27/02:30am 7.4 4.0 4.2 80 1.4 SE 11 13 6 7 1024.6 - 0.0
27/02:00am 7.9 4.2 4.5 79 1.5 SE 13 15 7 8 1024.5 - 0.0
27/01:30am 7.5 4.2 4.3 80 1.4 SE 11 13 6 7 1024.7 - 0.0
27/01:00am 7.5 3.8 4.5 81 1.3 SE 13 15 7 8 1025.0 - 0.0
27/12:30am 8.2 5.0 5.3 82 1.3 SE 11 13 6 7 1025.3 - 0.0
27/12:22am 8.0 4.8 5.3 83 1.2 SE 11 13 6 7 1025.4 - 0.0
27/12:02am 8.1 5.0 5.4 83 1.2 SSE 11 13 6 7 1025.5 - 0.0
27/12:00am 8.1 5.4 5.7 85 1.1 SSE 9 13 5 7 1025.5 1025.5 0.0
 
Date/Time
CDT
Temp
°C
App
Temp
°C
Dew
Point
Rel
Hum
%
Delta-T
°C
Wind Press
QNH
hPa
Press
MSL
hPa
Rain
since 9 am
mm
Dir
 
Spd
km/h
Gust
km/h
Spd
kts
Gust
kts
26/11:31pm 8.1 5.5 5.9 86 1.0 SSE 9 11 5 6 1025.5 - 0.0
26/11:30pm 8.1 5.5 5.9 86 1.0 SSE 9 11 5 6 1025.5 - 0.0
26/11:00pm 7.8 5.1 5.6 86 1.0 SSE 9 11 5 6 1025.4 - 0.0
26/10:42pm 8.1 5.5 5.9 86 1.0 SSE 9 11 5 6 1025.4 - 0.0
26/10:30pm 8.3 5.7 6.1 86 1.0 SSE 9 11 5 6 1025.3 - 0.0
26/10:00pm 8.8 6.3 6.4 85 1.1 S 9 11 5 6 1025.2 - 0.0
26/09:30pm 9.8 7.0 6.8 81 1.4 SSE 11 13 6 7 1025.0 - 0.0
26/09:00pm 11.0 8.0 7.5 79 1.7 SSE 13 19 7 10 1024.5 1024.5 0.0
26/08:30pm 12.1 9.1 7.6 74 2.2 S 13 15 7 8 1024.3 - 0.0
26/08:00pm 12.8 8.3 7.0 68 2.8 S 20 26 11 14 1024.3 - 0.0
26/07:30pm 14.1 9.5 6.6 60 3.6 S 20 30 11 16 1024.2 - 0.0
26/07:00pm 15.0 9.0 7.0 59 3.9 S 28 35 15 19 1023.9 - 0.0
26/06:30pm 16.2 10.2 6.9 54 4.6 S 28 33 15 18 1023.6 - 0.0
26/06:00pm 16.8 10.8 7.1 52 4.8 S 28 41 15 22 1023.3 1023.3 0.0
26/05:30pm 17.7 12.0 8.3 54 4.8 S 28 39 15 21 1023.2 - 0.0
26/05:00pm 16.5 10.5 8.7 60 4.0 S 30 41 16 22 1023.1 - 0.0
26/04:30pm 17.9 12.3 8.8 55 4.7 SSW 28 39 15 21 1023.2 - 0.0
26/04:00pm 18.9 13.6 9.9 56 4.8 S 28 35 15 19 1023.1 - 0.0
26/03:30pm 18.0 12.4 10.3 60 4.1 S 30 37 16 20 1023.0 - 0.0
26/03:00pm 18.1 13.5 12.3 69 3.2 S 28 35 15 19 1023.2 1023.2 0.0
26/02:30pm 17.0 12.2 10.4 65 3.5 SSW 26 35 14 19 1023.1 - 0.0
26/02:00pm 17.0 13.5 11.0 68 3.2 SW 20 30 11 16 1023.2 - 0.0
26/01:30pm 15.3 12.5 12.6 84 1.5 SW 19 26 10 14 1023.4 - 0.0
26/01:00pm 16.9 12.8 11.6 71 2.9 SW 24 30 13 16 1023.3 - 0.0
26/12:30pm 16.2 12.7 11.0 71 2.8 SW 20 28 11 15 1023.4 - 0.0
26/12:00pm 18.3 15.4 9.8 57 4.5 W 15 22 8 12 1023.2 1023.2 0.0
26/11:30am 17.3 13.3 9.2 59 4.2 W 20 28 11 15 1023.4 - 0.0
26/11:00am 18.0 14.9 8.7 54 4.8 WSW 15 22 8 12 1023.3 - 0.0
26/10:30am 16.6 12.5 8.8 60 4.0 W 20 28 11 15 1023.3 - 0.0
26/10:00am 16.6 12.7 8.8 60 4.0 W 19 24 10 13 1023.1 - 0.0
26/09:30am 17.3 13.6 7.8 53 4.8 SW 17 28 9 15 1023.0 - 0.0
26/09:00am 16.2 12.0 7.6 56 4.3 WSW 19 28 10 15 1022.9 1022.9 0.2
26/08:30am 15.7 11.4 7.9 59 3.9 SW 20 30 11 16 1022.7 - 0.2
26/08:00am 14.7 11.0 8.1 64 3.3 WSW 17 26 9 14 1022.3 - 0.2
26/07:30am 13.9 11.8 8.3 69 2.8 W 9 13 5 7 1022.2 - 0.2
26/07:00am 13.3 11.3 8.7 73 2.3 W 9 11 5 6 1022.0 - 0.2
26/06:30am 12.6 10.7 9.0 79 1.8 WNW 9 11 5 6 1021.6 - 0.2
26/06:00am 12.5 10.2 9.1 80 1.7 W 11 13 6 7 1021.6 1021.6 0.2
26/05:30am 12.4 9.7 9.0 80 1.7 W 13 17 7 9 1021.1 - 0.2
26/05:00am 12.3 9.4 8.2 76 2.0 W 13 20 7 11 1021.2 - 0.2
26/04:30am 12.0 9.5 8.4 78 1.8 W 11 15 6 8 1021.1 - 0.2
26/04:00am 11.6 10.0 8.6 82 1.5 NW 7 9 4 5 1020.9 - 0.2
26/03:30am 11.9 10.2 8.2 78 1.8 W 7 7 4 4 1020.9 - 0.2
26/03:00am 11.8 10.0 7.9 77 1.9 W 7 7 4 4 1020.8 1020.8 0.2
26/02:30am 11.8 9.4 7.2 73 2.2 WNW 9 11 5 6 1021.0 - 0.2
26/02:00am 11.8 9.3 6.5 70 2.5 WNW 9 13 5 7 1021.2 - 0.2
26/01:30am 11.6 8.7 6.3 70 2.5 NW 11 13 6 7 1021.4 - 0.2
26/01:00am 11.1 8.1 6.2 72 2.3 NW 11 15 6 8 1021.6 - 0.2
26/12:30am 10.8 8.3 6.5 75 2.0 NW 9 13 5 7 1022.0 - 0.2
26/12:00am 10.6 8.0 6.3 75 2.0 NW 9 11 5 6 1022.3 1022.3 0.2
 
Date/Time
CDT
Temp
°C
App
Temp
°C
Dew
Point
Rel
Hum
%
Delta-T
°C
Wind Press
QNH
hPa
Press
MSL
hPa
Rain
since 9 am
mm
Dir
 
Spd
km/h
Gust
km/h
Spd
kts
Gust
kts
25/11:30pm 10.1 8.0 6.7 79 1.6 WNW 7 9 4 5 1022.5 - 0.2
25/11:00pm 8.9 5.9 5.8 81 1.4 NW 11 11 6 6 1022.6 - 0.2
25/10:30pm 9.8 7.5 5.6 75 1.9 WNW 7 9 4 5 1022.6 - 0.2
25/10:00pm 11.1 8.5 6.2 72 2.3 W 9 11 5 6 1022.7 - 0.2
25/09:30pm 11.0 8.3 5.8 70 2.4 W 9 9 5 5 1022.5 - 0.2
25/09:00pm 11.7 9.1 6.2 69 2.6 WSW 9 11 5 6 1022.4 1022.4 0.2
25/08:30pm 12.5 9.0 5.6 63 3.2 SW 13 17 7 9 1022.3 - 0.2
25/08:00pm 13.7 9.4 5.4 57 3.9 WSW 17 20 9 11 1022.2 - 0.2
25/07:30pm 14.1 9.9 4.0 50 4.6 WSW 15 24 8 13 1022.2 - 0.2
25/07:00pm 14.3 9.4 5.1 54 4.3 WSW 20 30 11 16 1021.9 - 0.2
25/06:30pm 14.6 9.7 5.3 53 4.4 WSW 20 28 11 15 1021.5 - 0.2
25/06:00pm 15.1 9.9 5.4 52 4.6 WSW 22 32 12 17 1021.2 1021.2 0.2
25/05:30pm 16.1 9.5 4.3 45 5.5 W 28 39 15 21 1021.0 - 0.2
25/05:00pm 17.0 10.7 3.6 41 6.2 W 26 39 14 21 1020.8 - 0.2
25/04:30pm 16.6 10.3 5.9 49 5.2 WSW 28 37 15 20 1020.7 - 0.2
25/04:00pm 16.5 9.2 5.5 48 5.3 W 33 39 18 21 1020.9 - 0.2
25/03:30pm 16.7 10.4 5.5 47 5.4 W 28 44 15 24 1021.0 - 0.2
25/03:00pm 15.7 7.6 7.0 56 4.3 W 39 48 21 26 1021.3 1021.3 0.2
25/02:30pm 17.1 10.3 5.2 45 5.7 W 30 37 16 20 1021.0 - 0.2
25/02:00pm 18.1 10.8 4.7 41 6.4 W 32 41 17 22 1021.1 - 0.2
25/01:30pm 16.2 8.4 5.0 47 5.3 WSW 35 48 19 26 1021.2 - 0.2
25/01:22pm 16.7 10.1 4.4 44 5.8 W 28 46 15 25 1021.3 - 0.2
25/01:00pm 15.6 9.9 8.3 62 3.7 WNW 28 41 15 22 1021.5 - 0.2
25/12:30pm 16.4 9.6 5.0 47 5.4 W 30 35 16 19 1021.2 - 0.2
25/12:00pm 16.9 10.4 4.9 45 5.7 W 28 39 15 21 1021.1 1021.1 0.0
25/11:30am 16.2 10.2 7.1 55 4.5 WSW 28 37 15 20 1021.1 - 0.0
25/11:00am 15.7 10.1 5.4 50 4.9 W 24 33 13 18 1021.2 - 0.0
25/10:30am 15.0 8.5 4.7 50 4.8 WSW 28 33 15 18 1021.0 - 0.0
25/10:00am 15.9 10.7 5.7 50 4.9 W 22 33 12 18 1020.7 - 0.0
25/09:30am 14.1 8.2 5.9 57 3.9 WSW 26 39 14 21 1020.7 - 0.0
25/09:00am 14.8 9.6 5.3 53 4.5 WSW 22 33 12 18 1020.2 1020.2 1.0
25/08:30am 14.6 8.5 5.0 52 4.5 WSW 26 33 14 18 1020.0 - 1.0
25/08:00am 13.9 9.7 7.4 65 3.2 W 19 28 10 15 1019.6 - 1.0
25/07:30am 11.8 10.0 9.6 86 1.1 W 9 13 5 7 1019.3 - 1.0
25/07:00am 11.3 8.3 9.1 86 1.1 W 15 17 8 9 1019.0 - 1.0
25/06:30am 10.9 8.7 9.5 91 0.7 WNW 11 15 6 8 1018.7 - 1.0
25/06:00am 10.9 8.3 9.3 90 0.8 WSW 13 17 7 9 1018.3 1018.3 1.0
25/05:51am 10.9 8.2 8.9 87 1.0 W 13 26 7 14 1018.3 - 1.0
25/05:30am 11.1 7.8 8.2 82 1.4 WSW 15 19 8 10 1017.9 - 0.4
25/05:00am 10.8 7.6 8.4 85 1.2 W 15 17 8 9 1017.4 - 0.4
25/04:30am 11.2 6.7 8.6 84 1.3 WSW 22 30 12 16 1016.8 - 0.4
25/04:00am 10.4 7.9 8.1 86 1.1 W 11 13 6 7 1016.7 - 0.4
25/03:30am 11.0 8.2 8.4 84 1.3 W 13 22 7 12 1016.7 - 0.4
25/03:00am 10.1 7.4 7.4 83 1.3 W 11 13 6 7 1016.5 1016.5 0.4
25/02:30am 9.9 6.7 6.9 81 1.4 WNW 13 13 7 7 1016.9 - 0.4
25/02:00am 10.6 7.5 7.3 80 1.6 W 13 13 7 7 1016.6 - 0.4
25/01:30am 10.3 7.2 7.4 82 1.4 W 13 15 7 8 1016.7 - 0.4
25/01:00am 10.5 7.7 7.1 79 1.6 W 11 17 6 9 1016.7 - 0.4
25/12:30am 10.6 7.1 7.3 80 1.6 W 15 17 8 9 1016.6 - 0.4
25/12:00am 10.5 7.3 6.9 78 1.7 WNW 13 19 7 10 1016.4 1016.4 0.4
 
Date/Time
CDT
Temp
°C
App
Temp
°C
Dew
Point
Rel
Hum
%
Delta-T
°C
Wind Press
QNH
hPa
Press
MSL
hPa
Rain
since 9 am
mm
Dir
 
Spd
km/h
Gust
km/h
Spd
kts
Gust
kts
24/11:30pm 11.1 7.8 6.4 73 2.2 W 13 17 7 9 1016.2 - 0.4
24/11:00pm 11.4 7.6 5.6 67 2.7 W 15 19 8 10 1016.2 - 0.4
24/10:30pm 11.8 7.2 5.8 66 2.8 W 19 28 10 15 1016.1 - 0.4
24/10:00pm 11.5 7.3 7.4 76 2.0 W 19 26 10 14 1015.9 - 0.4
24/09:30pm 11.8 7.2 6.5 70 2.5 W 20 28 11 15 1015.5 - 0.4
24/09:00pm 12.3 7.5 7.4 72 2.4 W 22 35 12 19 1015.2 1015.2 0.4
24/08:30pm 13.1 7.3 4.6 56 3.9 W 24 33 13 18 1014.8 - 0.4
24/08:00pm 13.6 6.5 3.4 50 4.6 W 30 39 16 21 1014.4 - 0.4
24/07:30pm 14.2 8.2 5.3 55 4.2 W 26 33 14 18 1014.0 - 0.4
24/07:04pm 14.6 6.6 3.7 48 5.0 W 35 56 19 30 1013.5 - 0.4
24/07:00pm 15.0 7.3 3.4 45 5.3 W 33 50 18 27 1013.4 - 0.4
24/06:30pm 15.2 7.5 5.3 51 4.7 W 35 50 19 27 1012.9 - 0.4
24/06:26pm 15.4 7.7 5.3 51 4.8 W 35 54 19 29 1012.9 - 0.4
24/06:00pm 15.9 7.0 5.2 49 5.1 W 41 52 22 28 1012.4 1012.3 0.4
24/05:47pm 16.6 8.3 4.0 43 5.9 W 37 57 20 31 1012.2 - 0.4
24/05:30pm 15.9 7.7 4.7 47 5.3 W 37 52 20 28 1012.1 - 0.4
24/05:16pm 16.1 6.0 3.8 44 5.7 WSW 46 54 25 29 1011.9 - 0.4
24/05:09pm 16.9 7.2 3.0 39 6.4 W 43 50 23 27 1011.9 - 0.4
24/05:04pm 17.3 8.4 3.3 39 6.5 WSW 39 57 21 31 1011.9 - 0.4
24/05:00pm 17.1 8.8 4.2 42 6.1 WSW 37 50 20 27 1011.8 - 0.4
24/04:33pm 18.0 9.4 2.5 35 7.1 W 37 46 20 25 1011.8 - 0.4
24/04:30pm 17.4 8.8 2.8 37 6.7 WSW 37 48 20 26 1011.8 - 0.4
24/04:28pm 17.4 8.5 3.1 38 6.6 WSW 39 48 21 26 1011.7 - 0.4
24/04:00pm 17.9 8.8 1.7 33 7.3 W 39 61 21 33 1011.4 - 0.4
24/03:33pm 17.8 9.8 3.8 39 6.6 WSW 35 54 19 29 1011.2 - 0.4
24/03:30pm 17.2 9.7 4.3 42 6.1 WSW 33 50 18 27 1011.2 - 0.4
24/03:13pm 17.9 10.2 5.3 43 6.1 W 35 54 19 29 1011.2 - 0.4
24/03:00pm 17.5 9.2 5.9 46 5.7 W 39 54 21 29 1011.2 1011.2 0.4

Other Formats:

Comma delimited format used in spreadsheet applications
http://www.bom.gov.au/fwo/IDS60801/IDS60801.94821.axf

JavaScript Object Notation format (JSON) in row-major order
http://www.bom.gov.au/fwo/IDS60801/IDS60801.94821.json